Hauptseite
METAR-TAF:

METAR-TAF

Flughäfen :

Flughafen Saarbrücken

Saarbrücken, Deutschland

Breite: 49-13N, Länge: 007-07E, Höhe: 322 m

Beobachtung

Neuester Wetterbericht von vor 33 Minuten, um 13:50 UTC
Wind 6 kt aus West/Nordwest, variierte zwischen West/Südwest und Nord/Nordost
Temperatur 22°C
Luftfeuchtigkeit 33%
Luftdruck 1024 hPa
Sichtweite 10 km oder mehr
keine Wolken unter 1500 m und keine Kumulonimbus oder Gewitterwolken

METAR: EDDR 111350Z 29006KT 250V020 CAVOK 22/05 Q1024 NOSIG

Zeit: 16:23 (14:23 UTC)

Prognose

Neuester Wetterbericht von vor 3 Stunden und 23 Minuten, um 11:00 UTC
Gültige Prognose vom 11 um 12 UTC bis 12 um 12 UTC
Wind 6 kt aus Nord/Nordwest
Sichtweite 10 km oder mehr
Aufgelockert bewölkt in der Höhe von 3000 ft
Übergehend zu
vom 11 um 19 UTC bis 11 um 21 UTC
Wind 7 kt aus Nordost

TAF: EDDR 111100Z 1112/1212 33006KT 9999 SCT030 BECMG 1119/1121 04007KT

Wetterbeobachtungen und Prognosen von mehr als 4000 Flughäfen (METAR und TAF Bericht).

Die verfügbaren Stationen werden durch gelbe und rote Markierungen auf der Karte dargestellt.

Führen Sie die Maus auf sie, um den Namen der Station zu sehen.

Darauf klicken, um die Beobachtung von Wetterbeobachtungen und Prognosen zu sehen.

Um die Karte zu ändern : klicken Sie auf den grünen Tasten mit einem schwarzen Kreuz Zum Vergrößern, auf den grünen Button mit einem Gedankenstrich zu verkleinern, oder auf die grünen Pfeile für benachbarte Karten.


METAR-TAF: